createdAt,value
2023-03-03T00:02:21.137Z,14.98
2023-03-03T00:04:49.565Z,14.98
2023-03-03T00:07:23.565Z,14.97
2023-03-03T00:09:51.975Z,14.96
2023-03-03T00:12:29.065Z,14.95
2023-03-03T00:14:57.737Z,14.95
2023-03-03T00:17:29.772Z,14.94
2023-03-03T00:19:58.327Z,14.94
2023-03-03T00:22:37.206Z,14.93
2023-03-03T00:25:31.675Z,14.92
2023-03-03T00:28:25.322Z,14.92
2023-03-03T00:30:57.031Z,14.91
2023-03-03T00:33:40.075Z,14.89
2023-03-03T00:36:29.177Z,14.89
2023-03-03T00:39:38.122Z,14.84
2023-03-03T00:42:16.775Z,14.86
2023-03-03T00:44:56.300Z,14.87
2023-03-03T00:47:33.286Z,14.86
2023-03-03T00:50:07.881Z,14.85
2023-03-03T00:52:41.786Z,14.79
2023-03-03T00:55:11.697Z,14.79
2023-03-03T00:57:40.367Z,14.80
2023-03-03T01:00:13.376Z,14.81
2023-03-03T01:02:42.205Z,14.83
2023-03-03T01:05:13.797Z,14.83
2023-03-03T01:07:42.379Z,14.77
2023-03-03T01:10:11.892Z,14.78
2023-03-03T01:12:40.549Z,14.79
2023-03-03T01:15:10.718Z,14.75
2023-03-03T01:17:40.277Z,14.76
2023-03-03T01:20:11.342Z,14.77
2023-03-03T01:22:39.817Z,14.77
2023-03-03T01:25:09.431Z,14.77
2023-03-03T01:27:39.657Z,14.76
2023-03-03T01:30:09.240Z,14.74
2023-03-03T01:32:38.585Z,14.75
2023-03-03T01:35:08.205Z,14.74
2023-03-03T01:37:36.940Z,14.70
2023-03-03T01:40:18.216Z,14.73
2023-03-03T01:42:46.750Z,14.73
2023-03-03T01:45:23.386Z,14.72
2023-03-03T01:48:06.645Z,14.72
2023-03-03T01:50:48.204Z,14.65
2023-03-03T01:53:24.355Z,14.67
2023-03-03T01:55:53.227Z,14.70
2023-03-03T01:58:29.341Z,14.68
2023-03-03T02:01:02.712Z,14.67
2023-03-03T02:03:31.234Z,14.63
2023-03-03T02:06:23.513Z,14.66
2023-03-03T02:09:05.430Z,14.61
2023-03-03T02:11:36.600Z,14.65
2023-03-03T02:14:05.154Z,14.51
2023-03-03T02:16:34.125Z,14.63
2023-03-03T02:19:02.794Z,14.63
2023-03-03T02:21:31.665Z,14.61
2023-03-03T02:24:26.828Z,14.62
2023-03-03T02:26:55.711Z,14.61
2023-03-03T02:29:24.297Z,14.61
2023-03-03T02:31:54.692Z,14.59
2023-03-03T02:34:24.707Z,14.58
2023-03-03T02:36:54.102Z,14.59
2023-03-03T02:39:26.893Z,14.57
2023-03-03T02:42:18.309Z,14.54
2023-03-03T02:44:52.159Z,14.56
2023-03-03T02:47:20.882Z,14.56
2023-03-03T02:49:49.367Z,14.56
2023-03-03T02:52:19.688Z,14.53
2023-03-03T02:54:49.183Z,14.54
2023-03-03T02:57:18.236Z,14.52
2023-03-03T02:59:46.731Z,14.51
2023-03-03T03:02:19.933Z,14.52
2023-03-03T03:04:48.909Z,14.52
2023-03-03T03:07:22.530Z,14.50
2023-03-03T03:09:51.336Z,14.49
2023-03-03T03:12:21.519Z,14.50
2023-03-03T03:14:53.758Z,14.49
2023-03-03T03:17:22.595Z,14.46
2023-03-03T03:19:53.090Z,14.47
2023-03-03T03:22:22.363Z,14.48
2023-03-03T03:24:51.152Z,14.47
2023-03-03T03:27:20.260Z,14.47
2023-03-03T03:29:50.120Z,14.46
2023-03-03T03:32:20.009Z,14.49
2023-03-03T03:34:49.519Z,14.52
2023-03-03T03:37:18.421Z,14.57
2023-03-03T03:39:48.289Z,14.66
2023-03-03T03:42:17.441Z,14.76
2023-03-03T03:44:47.159Z,14.80
2023-03-03T03:47:17.222Z,14.88
2023-03-03T03:49:46.458Z,14.93
2023-03-03T03:52:15.640Z,14.99
2023-03-03T03:54:44.349Z,14.99
2023-03-03T03:57:13.565Z,14.97
2023-03-03T03:59:42.342Z,15.01
2023-03-03T04:02:11.624Z,14.98
2023-03-03T04:04:40.281Z,15.00
2023-03-03T04:07:11.435Z,14.95
2023-03-03T04:09:40.333Z,14.98
2023-03-03T04:12:09.991Z,14.97
2023-03-03T04:14:38.641Z,14.96
2023-03-03T04:17:07.473Z,14.94
2023-03-03T04:19:36.421Z,14.90
2023-03-03T04:22:07.282Z,14.91
2023-03-03T04:24:36.163Z,14.93
2023-03-03T04:27:06.533Z,14.88
2023-03-03T04:29:35.484Z,14.88
2023-03-03T04:32:04.536Z,14.85
2023-03-03T04:34:35.212Z,14.84
2023-03-03T04:37:04.196Z,14.84
2023-03-03T04:39:33.443Z,14.81
2023-03-03T04:42:02.443Z,14.77
2023-03-03T04:44:30.987Z,14.72
2023-03-03T04:47:00.784Z,14.74
2023-03-03T04:49:29.525Z,14.74
2023-03-03T04:51:59.487Z,14.73
2023-03-03T04:54:28.138Z,14.72
2023-03-03T04:56:57.357Z,14.72
2023-03-03T04:59:26.557Z,14.67
2023-03-03T05:01:55.568Z,14.65
2023-03-03T05:04:24.196Z,14.64
2023-03-03T05:06:53.034Z,14.65
2023-03-03T05:09:21.529Z,14.67
2023-03-03T05:11:50.547Z,14.70
2023-03-03T05:14:19.151Z,14.74
2023-03-03T05:16:48.412Z,14.77
2023-03-03T05:19:16.944Z,14.88
2023-03-03T05:21:46.225Z,14.96
2023-03-03T05:24:14.955Z,15.10
2023-03-03T05:26:43.866Z,15.14
2023-03-03T05:29:12.329Z,15.18
2023-03-03T05:31:41.797Z,15.33
2023-03-03T05:34:11.308Z,15.41
2023-03-03T05:36:40.133Z,15.51
2023-03-03T05:39:08.677Z,15.66
2023-03-03T05:41:37.484Z,15.74
2023-03-03T05:44:06.044Z,15.78
2023-03-03T05:46:34.937Z,15.88
2023-03-03T05:49:03.438Z,15.99
2023-03-03T05:51:32.265Z,16.05
2023-03-03T05:54:00.775Z,16.08
2023-03-03T05:56:29.977Z,16.16
2023-03-03T05:58:58.416Z,16.22
2023-03-03T06:01:28.751Z,16.42
2023-03-03T06:03:57.216Z,16.49
2023-03-03T06:06:26.096Z,16.53
2023-03-03T06:08:57.131Z,16.55
2023-03-03T06:11:26.415Z,16.58
2023-03-03T06:13:55.105Z,16.70
2023-03-03T06:16:24.032Z,16.72
2023-03-03T06:18:52.598Z,16.74
2023-03-03T06:21:21.421Z,16.73
2023-03-03T06:23:49.950Z,16.82
2023-03-03T06:26:18.798Z,16.94
2023-03-03T06:28:47.352Z,17.13
2023-03-03T06:31:16.333Z,17.07
2023-03-03T06:33:44.865Z,17.07
2023-03-03T06:36:13.872Z,17.08
2023-03-03T06:38:42.477Z,17.11
2023-03-03T06:41:11.644Z,17.06
2023-03-03T06:43:40.236Z,17.04
2023-03-03T06:46:09.200Z,16.96
2023-03-03T06:48:37.728Z,16.93
2023-03-03T06:51:22.310Z,16.90
2023-03-03T06:53:57.709Z,16.76
2023-03-03T06:56:27.010Z,16.78
2023-03-03T06:59:00.885Z,16.72
2023-03-03T07:01:35.690Z,16.65
2023-03-03T07:04:34.105Z,16.64
2023-03-03T07:07:20.891Z,16.61
2023-03-03T07:09:52.738Z,16.60
2023-03-03T07:12:27.746Z,16.57
2023-03-03T07:15:38.292Z,16.52
2023-03-03T07:18:32.843Z,16.46
2023-03-03T07:21:08.935Z,16.39
2023-03-03T07:23:45.575Z,16.30
2023-03-03T07:26:20.349Z,16.28
2023-03-03T07:29:17.445Z,16.30
2023-03-03T07:31:49.383Z,16.23
2023-03-03T07:34:36.271Z,16.24
2023-03-03T07:37:38.819Z,16.22
2023-03-03T07:40:35.608Z,16.18
2023-03-03T07:43:38.609Z,16.14
2023-03-03T07:46:10.382Z,15.98
2023-03-03T07:48:41.250Z,16.11
2023-03-03T07:51:23.168Z,16.09
2023-03-03T07:53:52.730Z,16.04
2023-03-03T07:56:34.976Z,15.86
2023-03-03T07:59:23.598Z,15.94
2023-03-03T08:01:58.693Z,15.90
2023-03-03T08:04:51.022Z,15.92
2023-03-03T08:07:22.390Z,15.91
2023-03-03T08:09:57.806Z,15.95
2023-03-03T08:12:34.368Z,15.92
2023-03-03T08:15:23.373Z,15.90
2023-03-03T08:17:53.999Z,15.90
2023-03-03T08:20:47.120Z,15.90
2023-03-03T08:23:17.304Z,15.88
2023-03-03T08:25:46.208Z,15.84
2023-03-03T08:28:15.584Z,15.85
2023-03-03T08:30:44.360Z,15.86
2023-03-03T08:33:13.890Z,15.87
2023-03-03T08:35:44.374Z,15.84
2023-03-03T08:38:15.198Z,15.82
2023-03-03T08:40:44.121Z,15.81
2023-03-03T08:43:17.770Z,15.77
2023-03-03T08:45:46.528Z,15.78
2023-03-03T08:48:16.101Z,15.79
2023-03-03T08:50:44.989Z,15.76
2023-03-03T08:53:14.062Z,15.80
2023-03-03T08:55:43.002Z,15.73
2023-03-03T08:58:11.930Z,15.76
2023-03-03T09:00:41.140Z,15.76
2023-03-03T09:03:09.981Z,15.74
2023-03-03T09:05:39.163Z,15.76
2023-03-03T09:08:08.214Z,15.77
2023-03-03T09:10:36.681Z,15.75
2023-03-03T09:13:15.783Z,15.77
2023-03-03T09:15:44.230Z,15.73
2023-03-03T09:18:24.759Z,15.69
2023-03-03T09:20:53.779Z,15.74
2023-03-03T09:23:58.307Z,15.73
2023-03-03T09:26:32.362Z,15.72
2023-03-03T09:29:17.968Z,15.71
2023-03-03T09:31:53.743Z,15.67
2023-03-03T09:34:40.938Z,15.69
2023-03-03T09:37:29.318Z,15.70
2023-03-03T09:39:58.301Z,15.63
2023-03-03T09:42:52.721Z,15.66
2023-03-03T09:45:40.075Z,15.64
2023-03-03T09:48:37.135Z,15.64
2023-03-03T09:51:55.597Z,15.63
2023-03-03T09:55:11.487Z,15.64
2023-03-03T09:58:20.178Z,15.66
2023-03-03T10:01:18.181Z,15.64
2023-03-03T10:04:25.749Z,15.59
2023-03-03T10:07:08.712Z,15.62
2023-03-03T10:10:13.555Z,15.59
2023-03-03T10:12:48.623Z,15.57
2023-03-03T10:15:37.457Z,15.59
2023-03-03T10:18:39.119Z,15.58
2023-03-03T10:21:19.987Z,15.56
2023-03-03T10:24:17.596Z,15.57
2023-03-03T10:27:19.456Z,15.58
2023-03-03T10:29:56.917Z,15.59
2023-03-03T10:32:41.330Z,15.61
2023-03-03T10:35:41.243Z,15.58
2023-03-03T10:38:14.985Z,15.54
2023-03-03T10:41:25.923Z,15.59
2023-03-03T10:44:17.011Z,15.56
2023-03-03T10:47:05.671Z,15.60
2023-03-03T10:50:00.783Z,15.58
2023-03-03T10:52:58.957Z,15.53
2023-03-03T10:55:39.524Z,15.53
2023-03-03T10:58:37.386Z,15.43
2023-03-03T11:01:24.126Z,15.55
2023-03-03T11:04:16.910Z,15.52
2023-03-03T11:07:13.802Z,15.53
2023-03-03T11:10:19.226Z,15.48
2023-03-03T11:13:09.392Z,15.52
2023-03-03T11:15:52.820Z,15.52
2023-03-03T11:19:09.865Z,15.47
2023-03-03T11:22:00.068Z,15.51
2023-03-03T11:24:53.499Z,15.52
2023-03-03T11:28:04.639Z,15.51
2023-03-03T11:30:58.042Z,15.49
2023-03-03T11:33:59.409Z,15.48
2023-03-03T11:36:58.341Z,15.52
2023-03-03T11:39:27.911Z,15.45
2023-03-03T11:42:36.581Z,15.42
2023-03-03T11:45:49.860Z,15.48
2023-03-03T11:48:46.851Z,15.51
2023-03-03T11:51:25.040Z,15.47
2023-03-03T11:54:02.393Z,15.47
2023-03-03T11:56:43.539Z,15.42
2023-03-03T11:59:33.020Z,15.43
2023-03-03T12:02:22.545Z,15.40
2023-03-03T12:04:59.348Z,15.42
2023-03-03T12:07:59.467Z,15.48
2023-03-03T12:10:49.652Z,15.37
2023-03-03T12:13:49.019Z,15.45
2023-03-03T12:16:47.122Z,15.48
2023-03-03T12:19:23.189Z,15.47
2023-03-03T12:22:19.454Z,15.49
2023-03-03T12:24:56.738Z,15.46
2023-03-03T12:28:00.778Z,15.50
2023-03-03T12:30:52.376Z,15.53
2023-03-03T12:33:53.289Z,15.48
2023-03-03T12:36:38.520Z,15.52
2023-03-03T12:39:35.788Z,15.53
2023-03-03T12:42:35.311Z,15.52
2023-03-03T12:45:43.320Z,15.55
2023-03-03T12:48:18.515Z,15.48
2023-03-03T12:51:01.003Z,15.52
2023-03-03T12:53:54.395Z,15.52
2023-03-03T12:56:53.904Z,15.47
2023-03-03T12:59:47.943Z,15.52
2023-03-03T13:02:47.721Z,15.51
2023-03-03T13:05:52.130Z,15.50
2023-03-03T13:08:48.632Z,15.50
2023-03-03T13:11:43.852Z,15.50
2023-03-03T13:14:26.312Z,15.53
2023-03-03T13:17:15.822Z,15.56
2023-03-03T13:20:00.505Z,15.58
2023-03-03T13:22:47.137Z,15.62
2023-03-03T13:25:27.558Z,15.65
2023-03-03T13:28:01.678Z,15.62
2023-03-03T13:30:38.396Z,15.69
2023-03-03T13:33:26.326Z,15.72
2023-03-03T13:36:00.457Z,15.73
2023-03-03T13:38:31.866Z,15.70
2023-03-03T13:41:18.307Z,15.71
2023-03-03T13:43:55.256Z,15.71
2023-03-03T13:46:53.176Z,15.66
2023-03-03T13:49:47.629Z,15.67
2023-03-03T13:52:34.081Z,15.72
2023-03-03T13:55:32.837Z,15.68
2023-03-03T13:58:15.031Z,15.70
2023-03-03T14:00:59.834Z,15.71
2023-03-03T14:04:03.012Z,15.74
2023-03-03T14:06:31.565Z,15.71
2023-03-03T14:09:44.261Z,15.77
2023-03-03T14:12:22.913Z,15.77
2023-03-03T14:15:06.312Z,15.73
2023-03-03T14:17:55.899Z,15.71
2023-03-03T14:20:52.948Z,15.70
2023-03-03T14:24:03.233Z,15.67
2023-03-03T14:26:31.962Z,15.65
2023-03-03T14:29:23.015Z,15.63
2023-03-03T14:31:52.118Z,15.63
2023-03-03T14:34:40.251Z,15.61
2023-03-03T14:37:29.553Z,15.65
2023-03-03T14:40:21.256Z,15.64
2023-03-03T14:42:52.821Z,15.63
2023-03-03T14:45:38.955Z,15.59
2023-03-03T14:48:18.270Z,15.63
2023-03-03T14:50:50.601Z,15.59
2023-03-03T14:53:19.193Z,15.54
2023-03-03T14:55:51.640Z,15.51
2023-03-03T14:58:38.095Z,15.52
2023-03-03T15:01:33.609Z,15.51
2023-03-03T15:04:27.991Z,15.48
2023-03-03T15:06:56.601Z,15.48
2023-03-03T15:09:37.161Z,15.50
2023-03-03T15:12:38.006Z,15.48
2023-03-03T15:15:19.976Z,15.47
2023-03-03T15:17:51.184Z,15.45
2023-03-03T15:20:47.402Z,15.45
2023-03-03T15:23:48.799Z,15.39
2023-03-03T15:26:47.749Z,15.42
2023-03-03T15:29:24.979Z,15.40
2023-03-03T15:32:18.798Z,15.40
2023-03-03T15:35:10.809Z,15.39
2023-03-03T15:38:00.340Z,15.29
2023-03-03T15:40:48.745Z,15.31
2023-03-03T15:44:06.637Z,15.36
2023-03-03T15:46:56.699Z,15.35
2023-03-03T15:50:03.426Z,15.34
2023-03-03T15:52:38.956Z,15.32
2023-03-03T15:55:59.861Z,15.32
2023-03-03T15:58:37.105Z,15.26
2023-03-03T16:02:05.569Z,15.27
2023-03-03T16:04:36.537Z,15.29
2023-03-03T16:07:36.062Z,15.33
2023-03-03T16:10:21.640Z,15.45
2023-03-03T16:13:16.885Z,15.52
2023-03-03T16:16:09.173Z,15.58
2023-03-03T16:19:00.907Z,15.65
2023-03-03T16:21:47.794Z,15.81
2023-03-03T16:24:53.156Z,15.92
2023-03-03T16:27:45.784Z,15.95
2023-03-03T16:30:52.280Z,16.10
2023-03-03T16:33:44.395Z,16.24
2023-03-03T16:36:47.838Z,16.31
2023-03-03T16:39:44.449Z,16.41
2023-03-03T16:42:30.377Z,16.54
2023-03-03T16:45:21.695Z,16.61
2023-03-03T16:48:35.517Z,16.69
2023-03-03T16:51:15.153Z,16.78
2023-03-03T16:54:03.430Z,16.91
2023-03-03T16:56:48.148Z,17.01
2023-03-03T16:59:36.968Z,17.01
2023-03-03T17:02:25.649Z,16.99
2023-03-03T17:05:18.408Z,17.06
2023-03-03T17:08:19.465Z,17.02
2023-03-03T17:11:12.673Z,17.04
2023-03-03T17:14:04.146Z,17.00
2023-03-03T17:17:02.557Z,16.95
2023-03-03T17:20:06.116Z,16.90
2023-03-03T17:22:46.623Z,16.79
2023-03-03T17:25:46.257Z,16.81
2023-03-03T17:28:36.899Z,16.78
2023-03-03T17:31:46.988Z,16.82
2023-03-03T17:34:39.864Z,16.73
2023-03-03T17:37:52.274Z,16.63
2023-03-03T17:40:48.470Z,16.63
2023-03-03T17:43:37.898Z,16.60
2023-03-03T17:46:22.264Z,16.59
2023-03-03T17:49:35.800Z,16.62
2023-03-03T17:52:10.600Z,16.52
2023-03-03T17:55:27.007Z,16.70
2023-03-03T17:58:56.424Z,16.78
2023-03-03T18:01:35.543Z,16.88
2023-03-03T18:04:13.436Z,17.02
2023-03-03T18:07:21.798Z,17.20
2023-03-03T18:10:38.383Z,17.24
2023-03-03T18:13:30.841Z,17.21
2023-03-03T18:16:26.337Z,17.32
2023-03-03T18:19:27.260Z,17.27
2023-03-03T18:22:14.523Z,17.16
2023-03-03T18:24:52.059Z,17.17
2023-03-03T18:27:48.693Z,17.14
2023-03-03T18:30:25.728Z,17.10
2023-03-03T18:32:57.548Z,17.07
2023-03-03T18:35:41.156Z,17.04
2023-03-03T18:38:16.177Z,17.04
2023-03-03T18:40:54.552Z,16.98
2023-03-03T18:43:44.959Z,16.98
2023-03-03T18:46:36.532Z,16.96
2023-03-03T18:49:09.757Z,16.89
2023-03-03T18:51:41.140Z,16.87
2023-03-03T18:54:12.687Z,16.84
2023-03-03T18:56:47.698Z,16.84
2023-03-03T18:59:31.746Z,16.62
2023-03-03T19:02:21.498Z,16.64
2023-03-03T19:05:15.897Z,16.64
2023-03-03T19:07:52.673Z,16.64
2023-03-03T19:10:21.664Z,16.63
2023-03-03T19:12:52.117Z,16.63
2023-03-03T19:15:30.228Z,16.60
2023-03-03T19:18:28.458Z,16.58
2023-03-03T19:21:12.440Z,16.54
2023-03-03T19:24:05.833Z,16.55
2023-03-03T19:27:24.207Z,16.52
2023-03-03T19:30:23.099Z,16.50
2023-03-03T19:33:31.250Z,16.46
2023-03-03T19:36:19.276Z,16.47
2023-03-03T19:39:13.652Z,16.42
2023-03-03T19:42:24.439Z,16.37
2023-03-03T19:45:15.706Z,16.44
2023-03-03T19:48:09.746Z,16.45
2023-03-03T19:51:02.534Z,16.43
2023-03-03T19:54:16.057Z,16.44
2023-03-03T19:56:58.493Z,16.41
2023-03-03T20:00:05.975Z,16.34
2023-03-03T20:03:10.016Z,16.42
2023-03-03T20:06:07.626Z,16.37
2023-03-03T20:08:49.241Z,16.34
2023-03-03T20:11:51.906Z,16.33
2023-03-03T20:14:46.298Z,16.34
2023-03-03T20:17:36.281Z,16.29
2023-03-03T20:20:25.656Z,16.27
2023-03-03T20:23:11.993Z,16.27
2023-03-03T20:25:47.263Z,16.31
2023-03-03T20:28:44.997Z,16.39
2023-03-03T20:31:24.304Z,16.46
2023-03-03T20:34:14.838Z,16.51
2023-03-03T20:37:10.812Z,16.51
2023-03-03T20:39:51.934Z,16.52
2023-03-03T20:42:54.595Z,16.52
2023-03-03T20:45:38.006Z,16.46
2023-03-03T20:48:19.582Z,16.50
2023-03-03T20:51:03.246Z,16.48
2023-03-03T20:53:53.447Z,16.43
2023-03-03T20:56:33.154Z,16.39
2023-03-03T20:59:19.108Z,16.37
2023-03-03T21:02:31.285Z,16.35
2023-03-03T21:05:22.505Z,16.31
2023-03-03T21:08:02.333Z,16.34
2023-03-03T21:10:35.794Z,16.33
2023-03-03T21:13:29.496Z,16.32
2023-03-03T21:16:09.813Z,16.30
2023-03-03T21:18:38.206Z,16.30
2023-03-03T21:21:06.799Z,16.26
2023-03-03T21:23:35.160Z,16.22
2023-03-03T21:26:03.851Z,16.22
2023-03-03T21:28:33.782Z,16.22
2023-03-03T21:31:20.514Z,16.19
2023-03-03T21:33:52.279Z,16.17
2023-03-03T21:36:32.647Z,16.12
2023-03-03T21:39:02.385Z,16.12
2023-03-03T21:42:09.525Z,16.13
2023-03-03T21:44:44.941Z,16.08
2023-03-03T21:47:17.670Z,16.08
2023-03-03T21:49:47.293Z,16.08
2023-03-03T21:52:17.028Z,16.05
2023-03-03T21:54:48.234Z,16.03
2023-03-03T21:57:16.625Z,16.06
2023-03-03T21:59:45.268Z,16.03
2023-03-03T22:02:13.555Z,16.03
2023-03-03T22:04:42.389Z,15.97
2023-03-03T22:07:10.906Z,15.99
2023-03-03T22:09:40.038Z,15.97
2023-03-03T22:12:08.413Z,15.97
2023-03-03T22:14:36.997Z,15.95
2023-03-03T22:17:05.348Z,15.94
2023-03-03T22:19:34.406Z,15.94
2023-03-03T22:22:02.650Z,15.92
2023-03-03T22:24:32.001Z,15.91
2023-03-03T22:27:00.320Z,15.90
2023-03-03T22:29:28.854Z,15.88
2023-03-03T22:31:57.172Z,15.88
2023-03-03T22:34:26.070Z,15.86
2023-03-03T22:36:54.314Z,15.86
2023-03-03T22:39:22.937Z,15.84
2023-03-03T22:41:51.308Z,15.81
2023-03-03T22:44:19.925Z,15.73
2023-03-03T22:46:48.226Z,15.81
2023-03-03T22:49:16.785Z,15.82
2023-03-03T22:51:45.162Z,15.80
2023-03-03T22:54:13.902Z,15.78
2023-03-03T22:56:42.259Z,15.79
2023-03-03T22:59:10.887Z,15.76
2023-03-03T23:01:39.161Z,15.77
2023-03-03T23:04:07.720Z,15.71
2023-03-03T23:06:36.014Z,15.75
2023-03-03T23:09:04.670Z,15.74
2023-03-03T23:11:33.011Z,15.72
2023-03-03T23:14:01.622Z,15.73
2023-03-03T23:16:30.109Z,15.70
2023-03-03T23:18:58.786Z,15.69
2023-03-03T23:21:27.148Z,15.68
2023-03-03T23:23:55.766Z,15.68
2023-03-03T23:26:24.179Z,15.68
2023-03-03T23:28:52.721Z,15.67
2023-03-03T23:31:21.056Z,15.65
2023-03-03T23:33:49.836Z,15.65
2023-03-03T23:36:18.175Z,15.64
2023-03-03T23:38:46.759Z,15.63
2023-03-03T23:41:15.077Z,15.60
2023-03-03T23:43:43.669Z,15.63
2023-03-03T23:46:12.071Z,15.62
2023-03-03T23:48:40.689Z,15.62
2023-03-03T23:51:09.029Z,15.60
2023-03-03T23:53:37.538Z,15.58
2023-03-03T23:56:06.323Z,15.56
2023-03-03T23:58:34.930Z,15.57
